sensor_id;sensor_type;location;lat;lon;timestamp;temperature;humidity
11704;DHT22;5908;51.354;7.458;2023-03-14T00:02:20;11.30;99.90
11704;DHT22;5908;51.354;7.458;2023-03-14T00:04:48;11.30;99.90
11704;DHT22;5908;51.354;7.458;2023-03-14T00:07:15;11.40;99.90
11704;DHT22;5908;51.354;7.458;2023-03-14T00:09:42;11.40;99.90
11704;DHT22;5908;51.354;7.458;2023-03-14T00:12:09;11.50;99.90
11704;DHT22;5908;51.354;7.458;2023-03-14T00:14:36;11.60;99.90
11704;DHT22;5908;51.354;7.458;2023-03-14T00:17:02;11.60;99.90
11704;DHT22;5908;51.354;7.458;2023-03-14T00:19:29;11.50;99.90
11704;DHT22;5908;51.354;7.458;2023-03-14T00:21:57;11.50;99.90
11704;DHT22;5908;51.354;7.458;2023-03-14T00:24:24;11.40;99.90
11704;DHT22;5908;51.354;7.458;2023-03-14T00:26:51;11.40;99.90
11704;DHT22;5908;51.354;7.458;2023-03-14T00:29:18;11.40;99.90
11704;DHT22;5908;51.354;7.458;2023-03-14T00:31:44;11.30;99.90
11704;DHT22;5908;51.354;7.458;2023-03-14T00:34:11;11.30;99.90
11704;DHT22;5908;51.354;7.458;2023-03-14T00:36:38;11.30;99.90
11704;DHT22;5908;51.354;7.458;2023-03-14T00:39:06;11.20;99.90
11704;DHT22;5908;51.354;7.458;2023-03-14T00:41:33;11.20;99.90
11704;DHT22;5908;51.354;7.458;2023-03-14T00:44:00;11.20;99.90
11704;DHT22;5908;51.354;7.458;2023-03-14T00:46:27;11.30;99.90
11704;DHT22;5908;51.354;7.458;2023-03-14T00:48:54;11.30;99.90
11704;DHT22;5908;51.354;7.458;2023-03-14T00:51:21;11.40;99.90
11704;DHT22;5908;51.354;7.458;2023-03-14T00:53:47;11.60;99.90
11704;DHT22;5908;51.354;7.458;2023-03-14T00:56:16;11.70;99.90
11704;DHT22;5908;51.354;7.458;2023-03-14T00:58:42;11.80;99.90
11704;DHT22;5908;51.354;7.458;2023-03-14T01:01:13;11.90;99.90
11704;DHT22;5908;51.354;7.458;2023-03-14T01:03:40;12.00;99.90
11704;DHT22;5908;51.354;7.458;2023-03-14T01:06:11;12.00;99.90
11704;DHT22;5908;51.354;7.458;2023-03-14T01:08:39;12.10;99.90
11704;DHT22;5908;51.354;7.458;2023-03-14T01:11:07;12.10;99.90
11704;DHT22;5908;51.354;7.458;2023-03-14T01:13:36;12.20;99.90
11704;DHT22;5908;51.354;7.458;2023-03-14T01:16:05;12.20;99.90
11704;DHT22;5908;51.354;7.458;2023-03-14T01:18:33;12.20;99.90
11704;DHT22;5908;51.354;7.458;2023-03-14T01:21:01;12.30;99.90
11704;DHT22;5908;51.354;7.458;2023-03-14T01:23:28;12.30;99.90
11704;DHT22;5908;51.354;7.458;2023-03-14T01:25:54;12.30;99.90
11704;DHT22;5908;51.354;7.458;2023-03-14T01:28:21;12.30;99.90
11704;DHT22;5908;51.354;7.458;2023-03-14T01:30:49;12.20;99.90
11704;DHT22;5908;51.354;7.458;2023-03-14T01:33:16;11.80;99.90
11704;DHT22;5908;51.354;7.458;2023-03-14T01:35:43;11.30;99.90
11704;DHT22;5908;51.354;7.458;2023-03-14T01:38:09;11.10;99.90
11704;DHT22;5908;51.354;7.458;2023-03-14T01:40:42;10.90;99.90
11704;DHT22;5908;51.354;7.458;2023-03-14T01:43:14;10.70;99.90
11704;DHT22;5908;51.354;7.458;2023-03-14T01:49:09;10.60;99.90
11704;DHT22;5908;51.354;7.458;2023-03-14T01:51:42;10.50;99.90
11704;DHT22;5908;51.354;7.458;2023-03-14T01:54:15;10.40;99.90
11704;DHT22;5908;51.354;7.458;2023-03-14T01:56:46;10.40;99.90
11704;DHT22;5908;51.354;7.458;2023-03-14T01:59:13;10.30;99.90
11704;DHT22;5908;51.354;7.458;2023-03-14T02:01:43;10.30;99.90
11704;DHT22;5908;51.354;7.458;2023-03-14T02:04:13;10.30;99.90
11704;DHT22;5908;51.354;7.458;2023-03-14T02:06:47;10.30;99.90
11704;DHT22;5908;51.354;7.458;2023-03-14T02:09:15;10.20;99.90
11704;DHT22;5908;51.354;7.458;2023-03-14T02:11:43;10.20;99.90
11704;DHT22;5908;51.354;7.458;2023-03-14T02:14:17;10.20;99.90
11704;DHT22;5908;51.354;7.458;2023-03-14T02:16:47;10.30;99.90
11704;DHT22;5908;51.354;7.458;2023-03-14T02:19:23;10.30;99.90
11704;DHT22;5908;51.354;7.458;2023-03-14T02:22:14;10.30;99.90
11704;DHT22;5908;51.354;7.458;2023-03-14T02:25:00;10.30;99.90
11704;DHT22;5908;51.354;7.458;2023-03-14T02:27:37;10.30;99.90
11704;DHT22;5908;51.354;7.458;2023-03-14T02:30:16;10.30;99.90
11704;DHT22;5908;51.354;7.458;2023-03-14T02:32:59;10.30;99.90
11704;DHT22;5908;51.354;7.458;2023-03-14T02:35:34;10.30;99.90
11704;DHT22;5908;51.354;7.458;2023-03-14T02:38:09;10.40;99.90
11704;DHT22;5908;51.354;7.458;2023-03-14T02:40:52;10.50;99.90
11704;DHT22;5908;51.354;7.458;2023-03-14T02:43:21;10.40;99.90
11704;DHT22;5908;51.354;7.458;2023-03-14T02:45:49;10.50;99.90
11704;DHT22;5908;51.354;7.458;2023-03-14T02:48:19;10.60;99.90
11704;DHT22;5908;51.354;7.458;2023-03-14T02:50:48;10.60;99.90
11704;DHT22;5908;51.354;7.458;2023-03-14T02:53:17;10.60;99.90
11704;DHT22;5908;51.354;7.458;2023-03-14T02:55:46;10.50;99.90
11704;DHT22;5908;51.354;7.458;2023-03-14T02:58:12;10.50;99.90
11704;DHT22;5908;51.354;7.458;2023-03-14T03:00:41;10.50;99.90
11704;DHT22;5908;51.354;7.458;2023-03-14T03:03:07;10.60;99.90
11704;DHT22;5908;51.354;7.458;2023-03-14T03:05:35;10.60;99.90
11704;DHT22;5908;51.354;7.458;2023-03-14T03:08:02;10.60;99.90
11704;DHT22;5908;51.354;7.458;2023-03-14T03:10:29;10.60;99.90
11704;DHT22;5908;51.354;7.458;2023-03-14T03:12:56;10.70;99.90
11704;DHT22;5908;51.354;7.458;2023-03-14T03:15:23;10.70;99.90
11704;DHT22;5908;51.354;7.458;2023-03-14T03:17:51;10.70;99.90
11704;DHT22;5908;51.354;7.458;2023-03-14T03:20:18;10.70;99.90
11704;DHT22;5908;51.354;7.458;2023-03-14T03:22:45;10.70;99.90
11704;DHT22;5908;51.354;7.458;2023-03-14T03:25:11;10.70;99.90
11704;DHT22;5908;51.354;7.458;2023-03-14T03:27:38;10.70;99.90
11704;DHT22;5908;51.354;7.458;2023-03-14T03:30:07;10.70;99.90
11704;DHT22;5908;51.354;7.458;2023-03-14T03:32:35;10.70;99.90
11704;DHT22;5908;51.354;7.458;2023-03-14T03:35:04;10.80;99.90
11704;DHT22;5908;51.354;7.458;2023-03-14T03:37:31;10.80;99.90
11704;DHT22;5908;51.354;7.458;2023-03-14T03:39:58;10.80;99.90
11704;DHT22;5908;51.354;7.458;2023-03-14T03:42:26;10.80;99.90
11704;DHT22;5908;51.354;7.458;2023-03-14T03:44:53;10.80;99.90
11704;DHT22;5908;51.354;7.458;2023-03-14T03:47:20;10.80;99.90
11704;DHT22;5908;51.354;7.458;2023-03-14T03:49:46;10.80;99.90
11704;DHT22;5908;51.354;7.458;2023-03-14T03:52:15;10.90;99.90
11704;DHT22;5908;51.354;7.458;2023-03-14T03:54:41;10.80;99.90
11704;DHT22;5908;51.354;7.458;2023-03-14T03:57:08;10.80;99.90
11704;DHT22;5908;51.354;7.458;2023-03-14T03:59:35;10.90;99.90
11704;DHT22;5908;51.354;7.458;2023-03-14T04:02:04;10.80;99.90
11704;DHT22;5908;51.354;7.458;2023-03-14T04:04:30;10.70;99.90
11704;DHT22;5908;51.354;7.458;2023-03-14T04:06:57;10.70;99.90
11704;DHT22;5908;51.354;7.458;2023-03-14T04:09:25;10.60;99.90
11704;DHT22;5908;51.354;7.458;2023-03-14T04:11:52;10.60;99.90
11704;DHT22;5908;51.354;7.458;2023-03-14T04:14:19;10.40;99.90
11704;DHT22;5908;51.354;7.458;2023-03-14T04:16:46;10.30;99.90
11704;DHT22;5908;51.354;7.458;2023-03-14T04:19:12;10.20;99.90
11704;DHT22;5908;51.354;7.458;2023-03-14T04:21:39;10.10;99.90
11704;DHT22;5908;51.354;7.458;2023-03-14T04:24:10;10.10;99.90
11704;DHT22;5908;51.354;7.458;2023-03-14T04:26:38;10.00;99.90
11704;DHT22;5908;51.354;7.458;2023-03-14T04:29:05;10.00;99.90
11704;DHT22;5908;51.354;7.458;2023-03-14T04:31:32;10.10;99.90
11704;DHT22;5908;51.354;7.458;2023-03-14T04:33:58;10.10;99.90
11704;DHT22;5908;51.354;7.458;2023-03-14T04:36:25;10.10;99.90
11704;DHT22;5908;51.354;7.458;2023-03-14T04:38:52;10.20;99.90
11704;DHT22;5908;51.354;7.458;2023-03-14T04:41:19;10.20;99.90
11704;DHT22;5908;51.354;7.458;2023-03-14T04:43:47;10.20;99.90
11704;DHT22;5908;51.354;7.458;2023-03-14T04:46:13;10.30;99.90
11704;DHT22;5908;51.354;7.458;2023-03-14T04:48:40;10.30;99.90
11704;DHT22;5908;51.354;7.458;2023-03-14T04:51:07;10.30;99.90
11704;DHT22;5908;51.354;7.458;2023-03-14T04:53:34;10.30;99.90
11704;DHT22;5908;51.354;7.458;2023-03-14T04:56:03;10.30;99.90
11704;DHT22;5908;51.354;7.458;2023-03-14T04:58:29;10.30;99.90
11704;DHT22;5908;51.354;7.458;2023-03-14T05:01:01;10.20;99.90
11704;DHT22;5908;51.354;7.458;2023-03-14T05:03:28;10.20;99.90
11704;DHT22;5908;51.354;7.458;2023-03-14T05:05:55;10.10;99.90
11704;DHT22;5908;51.354;7.458;2023-03-14T05:08:22;10.10;99.90
11704;DHT22;5908;51.354;7.458;2023-03-14T05:10:52;10.20;99.90
11704;DHT22;5908;51.354;7.458;2023-03-14T05:13:19;10.20;99.90
11704;DHT22;5908;51.354;7.458;2023-03-14T05:15:46;10.20;99.90
11704;DHT22;5908;51.354;7.458;2023-03-14T05:18:14;10.20;99.90
11704;DHT22;5908;51.354;7.458;2023-03-14T05:20:40;10.10;99.90
11704;DHT22;5908;51.354;7.458;2023-03-14T05:23:08;10.10;99.90
11704;DHT22;5908;51.354;7.458;2023-03-14T05:25:35;10.10;99.90
11704;DHT22;5908;51.354;7.458;2023-03-14T05:28:02;10.00;99.90
11704;DHT22;5908;51.354;7.458;2023-03-14T05:30:29;9.90;99.90
11704;DHT22;5908;51.354;7.458;2023-03-14T05:32:56;9.90;99.90
11704;DHT22;5908;51.354;7.458;2023-03-14T05:35:24;9.90;99.90
11704;DHT22;5908;51.354;7.458;2023-03-14T05:37:51;9.90;99.90
11704;DHT22;5908;51.354;7.458;2023-03-14T05:40:18;10.00;99.90
11704;DHT22;5908;51.354;7.458;2023-03-14T05:42:45;10.10;99.90
11704;DHT22;5908;51.354;7.458;2023-03-14T05:45:11;10.10;99.90
11704;DHT22;5908;51.354;7.458;2023-03-14T05:47:38;10.20;99.90
11704;DHT22;5908;51.354;7.458;2023-03-14T05:50:05;10.20;99.90
11704;DHT22;5908;51.354;7.458;2023-03-14T05:52:33;10.20;99.90
11704;DHT22;5908;51.354;7.458;2023-03-14T05:55:00;10.20;99.90
11704;DHT22;5908;51.354;7.458;2023-03-14T05:57:27;10.10;99.90
11704;DHT22;5908;51.354;7.458;2023-03-14T05:59:54;10.20;99.90
11704;DHT22;5908;51.354;7.458;2023-03-14T06:02:20;10.20;99.90
11704;DHT22;5908;51.354;7.458;2023-03-14T06:04:47;10.30;99.90
11704;DHT22;5908;51.354;7.458;2023-03-14T06:07:14;10.30;99.90
11704;DHT22;5908;51.354;7.458;2023-03-14T06:09:42;10.30;99.90
11704;DHT22;5908;51.354;7.458;2023-03-14T06:12:09;10.30;99.90
11704;DHT22;5908;51.354;7.458;2023-03-14T06:14:36;10.30;99.90
11704;DHT22;5908;51.354;7.458;2023-03-14T06:17:02;10.40;99.90
11704;DHT22;5908;51.354;7.458;2023-03-14T06:19:29;10.40;99.90
11704;DHT22;5908;51.354;7.458;2023-03-14T06:21:56;10.40;99.90
11704;DHT22;5908;51.354;7.458;2023-03-14T06:24:23;10.40;99.90
11704;DHT22;5908;51.354;7.458;2023-03-14T06:26:51;10.50;99.90
11704;DHT22;5908;51.354;7.458;2023-03-14T06:29:17;10.40;99.90
11704;DHT22;5908;51.354;7.458;2023-03-14T06:31:44;10.30;99.90
11704;DHT22;5908;51.354;7.458;2023-03-14T06:34:11;10.40;99.90
11704;DHT22;5908;51.354;7.458;2023-03-14T06:36:39;10.40;99.90
11704;DHT22;5908;51.354;7.458;2023-03-14T06:39:06;10.50;99.90
11704;DHT22;5908;51.354;7.458;2023-03-14T06:41:32;10.60;99.90
11704;DHT22;5908;51.354;7.458;2023-03-14T06:44:01;10.70;99.90
11704;DHT22;5908;51.354;7.458;2023-03-14T06:46:28;10.90;99.90
11704;DHT22;5908;51.354;7.458;2023-03-14T06:48:54;11.10;99.90
11704;DHT22;5908;51.354;7.458;2023-03-14T06:51:21;11.10;99.90
11704;DHT22;5908;51.354;7.458;2023-03-14T06:53:48;11.00;99.90
11704;DHT22;5908;51.354;7.458;2023-03-14T06:56:15;10.90;99.90
11704;DHT22;5908;51.354;7.458;2023-03-14T06:58:42;10.80;99.90
11704;DHT22;5908;51.354;7.458;2023-03-14T07:01:19;10.80;99.90
11704;DHT22;5908;51.354;7.458;2023-03-14T07:03:47;10.90;99.90
11704;DHT22;5908;51.354;7.458;2023-03-14T07:06:14;11.00;99.90
11704;DHT22;5908;51.354;7.458;2023-03-14T07:08:41;11.00;99.90
11704;DHT22;5908;51.354;7.458;2023-03-14T07:11:08;11.00;99.90
11704;DHT22;5908;51.354;7.458;2023-03-14T07:13:36;11.20;99.90
11704;DHT22;5908;51.354;7.458;2023-03-14T07:16:04;11.40;99.90
11704;DHT22;5908;51.354;7.458;2023-03-14T07:18:32;11.30;99.90
11704;DHT22;5908;51.354;7.458;2023-03-14T07:20:59;11.30;99.90
11704;DHT22;5908;51.354;7.458;2023-03-14T07:23:26;11.30;99.90
11704;DHT22;5908;51.354;7.458;2023-03-14T07:25:52;11.30;99.90
11704;DHT22;5908;51.354;7.458;2023-03-14T07:28:20;11.30;99.90
11704;DHT22;5908;51.354;7.458;2023-03-14T07:30:48;11.30;99.90
11704;DHT22;5908;51.354;7.458;2023-03-14T07:33:15;11.60;99.90
11704;DHT22;5908;51.354;7.458;2023-03-14T07:35:43;11.60;99.90
11704;DHT22;5908;51.354;7.458;2023-03-14T07:38:10;11.60;99.90
11704;DHT22;5908;51.354;7.458;2023-03-14T07:40:37;11.80;99.90
11704;DHT22;5908;51.354;7.458;2023-03-14T07:43:04;12.00;99.90
11704;DHT22;5908;51.354;7.458;2023-03-14T07:45:30;12.00;99.90
11704;DHT22;5908;51.354;7.458;2023-03-14T07:47:57;11.90;99.90
11704;DHT22;5908;51.354;7.458;2023-03-14T07:50:24;11.80;99.90
11704;DHT22;5908;51.354;7.458;2023-03-14T07:52:53;11.80;99.90
11704;DHT22;5908;51.354;7.458;2023-03-14T07:55:20;11.90;99.90
11704;DHT22;5908;51.354;7.458;2023-03-14T07:57:47;11.90;99.90
11704;DHT22;5908;51.354;7.458;2023-03-14T08:00:15;11.80;99.90
11704;DHT22;5908;51.354;7.458;2023-03-14T08:02:42;11.90;99.90
11704;DHT22;5908;51.354;7.458;2023-03-14T08:05:09;11.90;99.90
11704;DHT22;5908;51.354;7.458;2023-03-14T08:07:36;12.00;99.90
11704;DHT22;5908;51.354;7.458;2023-03-14T08:10:05;12.00;99.90
11704;DHT22;5908;51.354;7.458;2023-03-14T08:12:32;12.10;99.90
11704;DHT22;5908;51.354;7.458;2023-03-14T08:14:59;12.20;99.90
11704;DHT22;5908;51.354;7.458;2023-03-14T08:17:26;12.40;99.90
11704;DHT22;5908;51.354;7.458;2023-03-14T08:19:53;12.60;99.90
11704;DHT22;5908;51.354;7.458;2023-03-14T08:22:19;12.70;99.90
11704;DHT22;5908;51.354;7.458;2023-03-14T08:24:46;12.70;99.90
11704;DHT22;5908;51.354;7.458;2023-03-14T08:27:14;12.70;99.90
11704;DHT22;5908;51.354;7.458;2023-03-14T08:29:41;12.60;99.90
11704;DHT22;5908;51.354;7.458;2023-03-14T08:32:09;12.70;99.90
11704;DHT22;5908;51.354;7.458;2023-03-14T08:34:35;12.80;99.90
11704;DHT22;5908;51.354;7.458;2023-03-14T08:37:02;12.90;99.90
11704;DHT22;5908;51.354;7.458;2023-03-14T08:39:29;12.90;99.90
11704;DHT22;5908;51.354;7.458;2023-03-14T08:41:56;12.90;99.90
11704;DHT22;5908;51.354;7.458;2023-03-14T08:44:24;12.80;99.90
11704;DHT22;5908;51.354;7.458;2023-03-14T08:46:51;12.90;99.90
11704;DHT22;5908;51.354;7.458;2023-03-14T08:49:18;13.00;99.90
11704;DHT22;5908;51.354;7.458;2023-03-14T08:51:45;13.00;99.90
11704;DHT22;5908;51.354;7.458;2023-03-14T08:54:12;13.00;99.90
11704;DHT22;5908;51.354;7.458;2023-03-14T08:56:39;13.10;99.90
11704;DHT22;5908;51.354;7.458;2023-03-14T08:59:06;13.20;99.90
11704;DHT22;5908;51.354;7.458;2023-03-14T09:01:34;13.20;99.90
11704;DHT22;5908;51.354;7.458;2023-03-14T09:04:01;13.60;99.90
11704;DHT22;5908;51.354;7.458;2023-03-14T09:06:28;13.90;99.90
11704;DHT22;5908;51.354;7.458;2023-03-14T09:08:55;13.90;99.90
11704;DHT22;5908;51.354;7.458;2023-03-14T09:11:22;13.90;99.90
11704;DHT22;5908;51.354;7.458;2023-03-14T09:13:49;13.80;99.90
11704;DHT22;5908;51.354;7.458;2023-03-14T09:16:18;13.70;99.90
11704;DHT22;5908;51.354;7.458;2023-03-14T09:18:47;13.90;99.90
11704;DHT22;5908;51.354;7.458;2023-03-14T09:21:13;13.90;99.90
11704;DHT22;5908;51.354;7.458;2023-03-14T09:23:41;13.90;99.90
11704;DHT22;5908;51.354;7.458;2023-03-14T09:26:08;14.10;99.90
11704;DHT22;5908;51.354;7.458;2023-03-14T09:28:35;14.40;99.90
11704;DHT22;5908;51.354;7.458;2023-03-14T09:31:06;14.40;99.90
11704;DHT22;5908;51.354;7.458;2023-03-14T09:33:37;14.20;99.90
11704;DHT22;5908;51.354;7.458;2023-03-14T09:36:06;14.00;99.90
11704;DHT22;5908;51.354;7.458;2023-03-14T09:38:33;13.80;99.90
11704;DHT22;5908;51.354;7.458;2023-03-14T09:41:03;13.50;99.90
11704;DHT22;5908;51.354;7.458;2023-03-14T09:43:40;13.40;99.90
11704;DHT22;5908;51.354;7.458;2023-03-14T09:46:09;13.60;99.90
11704;DHT22;5908;51.354;7.458;2023-03-14T09:48:37;13.50;99.90
11704;DHT22;5908;51.354;7.458;2023-03-14T09:51:12;13.40;99.90
11704;DHT22;5908;51.354;7.458;2023-03-14T09:53:41;13.30;99.90
11704;DHT22;5908;51.354;7.458;2023-03-14T09:56:12;13.30;99.90
11704;DHT22;5908;51.354;7.458;2023-03-14T09:58:41;13.20;99.90
11704;DHT22;5908;51.354;7.458;2023-03-14T10:01:11;13.20;99.90
11704;DHT22;5908;51.354;7.458;2023-03-14T10:03:40;12.90;99.90
11704;DHT22;5908;51.354;7.458;2023-03-14T10:06:12;12.60;99.90
11704;DHT22;5908;51.354;7.458;2023-03-14T10:08:40;12.30;99.90
11704;DHT22;5908;51.354;7.458;2023-03-14T10:11:14;12.00;99.90
11704;DHT22;5908;51.354;7.458;2023-03-14T10:13:50;11.90;99.90
11704;DHT22;5908;51.354;7.458;2023-03-14T10:16:29;11.60;99.90
11704;DHT22;5908;51.354;7.458;2023-03-14T10:19:02;11.30;99.90
11704;DHT22;5908;51.354;7.458;2023-03-14T10:21:32;11.00;99.90
11704;DHT22;5908;51.354;7.458;2023-03-14T10:24:10;10.80;99.90
11704;DHT22;5908;51.354;7.458;2023-03-14T10:26:37;10.80;99.90
11704;DHT22;5908;51.354;7.458;2023-03-14T10:29:10;10.70;99.90
11704;DHT22;5908;51.354;7.458;2023-03-14T10:31:49;10.50;99.90
11704;DHT22;5908;51.354;7.458;2023-03-14T10:34:21;10.40;99.90
11704;DHT22;5908;51.354;7.458;2023-03-14T10:36:54;10.40;99.90
11704;DHT22;5908;51.354;7.458;2023-03-14T10:39:25;10.30;99.90
11704;DHT22;5908;51.354;7.458;2023-03-14T10:41:54;10.20;99.90
11704;DHT22;5908;51.354;7.458;2023-03-14T10:44:23;10.10;99.90
11704;DHT22;5908;51.354;7.458;2023-03-14T10:47:00;10.00;99.90
11704;DHT22;5908;51.354;7.458;2023-03-14T10:49:29;10.20;99.90
11704;DHT22;5908;51.354;7.458;2023-03-14T10:52:01;10.30;99.90
11704;DHT22;5908;51.354;7.458;2023-03-14T10:54:29;10.40;99.90
11704;DHT22;5908;51.354;7.458;2023-03-14T10:56:57;10.30;99.90
11704;DHT22;5908;51.354;7.458;2023-03-14T10:59:27;10.30;99.90
11704;DHT22;5908;51.354;7.458;2023-03-14T11:01:58;10.10;99.90
11704;DHT22;5908;51.354;7.458;2023-03-14T11:04:42;9.80;99.90
11704;DHT22;5908;51.354;7.458;2023-03-14T11:07:18;9.70;99.90
11704;DHT22;5908;51.354;7.458;2023-03-14T11:09:55;9.70;99.90
11704;DHT22;5908;51.354;7.458;2023-03-14T11:12:35;9.50;99.90
11704;DHT22;5908;51.354;7.458;2023-03-14T11:15:13;9.40;99.90
11704;DHT22;5908;51.354;7.458;2023-03-14T11:17:46;9.40;99.90
11704;DHT22;5908;51.354;7.458;2023-03-14T11:20:30;9.40;99.90
11704;DHT22;5908;51.354;7.458;2023-03-14T11:23:07;9.20;99.90
11704;DHT22;5908;51.354;7.458;2023-03-14T11:25:42;9.20;99.90
11704;DHT22;5908;51.354;7.458;2023-03-14T11:28:18;9.10;99.90
11704;DHT22;5908;51.354;7.458;2023-03-14T11:30:51;9.10;99.90
11704;DHT22;5908;51.354;7.458;2023-03-14T11:33:22;9.10;99.90
11704;DHT22;5908;51.354;7.458;2023-03-14T11:35:56;9.20;99.90
11704;DHT22;5908;51.354;7.458;2023-03-14T11:38:32;9.30;99.90
11704;DHT22;5908;51.354;7.458;2023-03-14T11:41:00;9.40;99.90
11704;DHT22;5908;51.354;7.458;2023-03-14T11:43:29;9.70;99.90
11704;DHT22;5908;51.354;7.458;2023-03-14T11:46:03;10.00;99.90
11704;DHT22;5908;51.354;7.458;2023-03-14T11:48:37;10.10;99.90
11704;DHT22;5908;51.354;7.458;2023-03-14T11:51:11;10.10;99.90
11704;DHT22;5908;51.354;7.458;2023-03-14T11:53:50;9.80;99.90
11704;DHT22;5908;51.354;7.458;2023-03-14T11:56:27;9.50;99.90
11704;DHT22;5908;51.354;7.458;2023-03-14T11:58:58;9.40;99.90
11704;DHT22;5908;51.354;7.458;2023-03-14T12:04:30;10.30;99.90
11704;DHT22;5908;51.354;7.458;2023-03-14T12:07:02;10.50;99.90
11704;DHT22;5908;51.354;7.458;2023-03-14T12:09:32;10.00;99.90
11704;DHT22;5908;51.354;7.458;2023-03-14T12:12:02;9.60;99.90
11704;DHT22;5908;51.354;7.458;2023-03-14T12:14:32;9.30;99.90
11704;DHT22;5908;51.354;7.458;2023-03-14T12:17:05;9.20;99.90
11704;DHT22;5908;51.354;7.458;2023-03-14T12:19:37;9.20;99.90
11704;DHT22;5908;51.354;7.458;2023-03-14T12:22:33;9.00;99.90
11704;DHT22;5908;51.354;7.458;2023-03-14T12:25:06;8.90;99.90
11704;DHT22;5908;51.354;7.458;2023-03-14T12:28:03;8.80;99.90
11704;DHT22;5908;51.354;7.458;2023-03-14T12:30:33;8.50;99.90
11704;DHT22;5908;51.354;7.458;2023-03-14T12:33:33;8.40;99.90
11704;DHT22;5908;51.354;7.458;2023-03-14T12:36:03;8.40;99.90
11704;DHT22;5908;51.354;7.458;2023-03-14T12:38:52;8.40;99.90
11704;DHT22;5908;51.354;7.458;2023-03-14T12:41:27;8.50;99.90
11704;DHT22;5908;51.354;7.458;2023-03-14T12:43:55;8.60;99.90
11704;DHT22;5908;51.354;7.458;2023-03-14T12:46:23;8.60;99.90
11704;DHT22;5908;51.354;7.458;2023-03-14T12:48:55;8.50;99.90
11704;DHT22;5908;51.354;7.458;2023-03-14T12:51:34;8.50;99.90
11704;DHT22;5908;51.354;7.458;2023-03-14T12:54:19;8.60;99.90
11704;DHT22;5908;51.354;7.458;2023-03-14T12:57:06;8.50;99.90
11704;DHT22;5908;51.354;7.458;2023-03-14T12:59:37;8.70;99.90
11704;DHT22;5908;51.354;7.458;2023-03-14T13:02:22;8.90;99.90
11704;DHT22;5908;51.354;7.458;2023-03-14T13:04:52;9.30;99.90
11704;DHT22;5908;51.354;7.458;2023-03-14T13:07:32;9.80;99.90
11704;DHT22;5908;51.354;7.458;2023-03-14T13:10:16;10.10;99.90
11704;DHT22;5908;51.354;7.458;2023-03-14T13:12:49;10.30;99.90
11704;DHT22;5908;51.354;7.458;2023-03-14T13:15:24;10.40;99.90
11704;DHT22;5908;51.354;7.458;2023-03-14T13:18:00;10.50;99.90
11704;DHT22;5908;51.354;7.458;2023-03-14T13:20:30;10.60;99.90
11704;DHT22;5908;51.354;7.458;2023-03-14T13:22:57;10.50;99.90
11704;DHT22;5908;51.354;7.458;2023-03-14T13:25:29;10.50;99.90
11704;DHT22;5908;51.354;7.458;2023-03-14T13:27:58;10.40;99.90
11704;DHT22;5908;51.354;7.458;2023-03-14T13:30:27;10.30;99.90
11704;DHT22;5908;51.354;7.458;2023-03-14T13:32:55;9.90;99.90
11704;DHT22;5908;51.354;7.458;2023-03-14T13:35:25;9.30;99.90
11704;DHT22;5908;51.354;7.458;2023-03-14T13:37:56;8.60;99.90
11704;DHT22;5908;51.354;7.458;2023-03-14T13:40:32;8.20;99.90
11704;DHT22;5908;51.354;7.458;2023-03-14T13:43:05;8.00;99.90
11704;DHT22;5908;51.354;7.458;2023-03-14T13:45:46;7.90;99.90
11704;DHT22;5908;51.354;7.458;2023-03-14T13:48:14;7.80;99.90
11704;DHT22;5908;51.354;7.458;2023-03-14T13:50:49;7.70;99.90
11704;DHT22;5908;51.354;7.458;2023-03-14T13:53:17;7.80;99.90
11704;DHT22;5908;51.354;7.458;2023-03-14T13:55:44;7.80;99.90
11704;DHT22;5908;51.354;7.458;2023-03-14T13:58:20;7.90;99.90
11704;DHT22;5908;51.354;7.458;2023-03-14T14:01:03;8.10;99.90
11704;DHT22;5908;51.354;7.458;2023-03-14T14:03:32;8.20;99.90
11704;DHT22;5908;51.354;7.458;2023-03-14T14:06:01;8.20;99.90
11704;DHT22;5908;51.354;7.458;2023-03-14T14:08:28;8.40;99.90
11704;DHT22;5908;51.354;7.458;2023-03-14T14:10:59;8.40;99.90
11704;DHT22;5908;51.354;7.458;2023-03-14T14:13:31;8.30;99.90
11704;DHT22;5908;51.354;7.458;2023-03-14T14:16:00;8.40;99.90
11704;DHT22;5908;51.354;7.458;2023-03-14T14:18:31;8.30;99.90
11704;DHT22;5908;51.354;7.458;2023-03-14T14:21:03;8.20;99.90
11704;DHT22;5908;51.354;7.458;2023-03-14T14:23:30;8.40;99.90
11704;DHT22;5908;51.354;7.458;2023-03-14T14:25:58;8.50;99.90
11704;DHT22;5908;51.354;7.458;2023-03-14T14:28:29;8.70;99.90
11704;DHT22;5908;51.354;7.458;2023-03-14T14:31:04;9.00;99.90
11704;DHT22;5908;51.354;7.458;2023-03-14T14:33:39;9.20;99.90
11704;DHT22;5908;51.354;7.458;2023-03-14T14:36:15;9.30;99.90
11704;DHT22;5908;51.354;7.458;2023-03-14T14:38:49;9.70;99.90
11704;DHT22;5908;51.354;7.458;2023-03-14T14:41:16;9.90;99.90
11704;DHT22;5908;51.354;7.458;2023-03-14T14:43:44;10.00;99.90
11704;DHT22;5908;51.354;7.458;2023-03-14T14:46:17;10.00;99.90
11704;DHT22;5908;51.354;7.458;2023-03-14T14:48:45;9.90;99.90
11704;DHT22;5908;51.354;7.458;2023-03-14T14:51:23;9.80;99.90
11704;DHT22;5908;51.354;7.458;2023-03-14T14:53:59;9.50;99.90
11704;DHT22;5908;51.354;7.458;2023-03-14T14:56:28;9.20;99.90
11704;DHT22;5908;51.354;7.458;2023-03-14T14:58:59;8.90;99.90
11704;DHT22;5908;51.354;7.458;2023-03-14T15:01:33;8.80;99.90
11704;DHT22;5908;51.354;7.458;2023-03-14T15:04:01;8.80;99.90
11704;DHT22;5908;51.354;7.458;2023-03-14T15:06:29;8.70;99.90
11704;DHT22;5908;51.354;7.458;2023-03-14T15:08:57;8.60;99.90
11704;DHT22;5908;51.354;7.458;2023-03-14T15:11:25;8.50;99.90
11704;DHT22;5908;51.354;7.458;2023-03-14T15:13:53;8.50;99.90
11704;DHT22;5908;51.354;7.458;2023-03-14T15:16:22;8.50;99.90
11704;DHT22;5908;51.354;7.458;2023-03-14T15:18:53;8.60;99.90
11704;DHT22;5908;51.354;7.458;2023-03-14T15:21:22;8.60;99.90
11704;DHT22;5908;51.354;7.458;2023-03-14T15:23:49;8.70;99.90
11704;DHT22;5908;51.354;7.458;2023-03-14T15:26:18;8.80;99.90
11704;DHT22;5908;51.354;7.458;2023-03-14T15:28:45;8.90;99.90
11704;DHT22;5908;51.354;7.458;2023-03-14T15:31:13;8.90;99.90
11704;DHT22;5908;51.354;7.458;2023-03-14T15:33:42;8.90;99.90
11704;DHT22;5908;51.354;7.458;2023-03-14T15:36:19;8.90;99.90
11704;DHT22;5908;51.354;7.458;2023-03-14T15:38:47;8.90;99.90
11704;DHT22;5908;51.354;7.458;2023-03-14T15:41:14;8.80;99.90
11704;DHT22;5908;51.354;7.458;2023-03-14T15:43:42;8.90;99.90
11704;DHT22;5908;51.354;7.458;2023-03-14T15:46:08;8.90;99.90
11704;DHT22;5908;51.354;7.458;2023-03-14T15:48:35;8.90;99.90
11704;DHT22;5908;51.354;7.458;2023-03-14T15:51:04;9.00;99.90
11704;DHT22;5908;51.354;7.458;2023-03-14T15:53:31;8.90;99.90
11704;DHT22;5908;51.354;7.458;2023-03-14T15:55:58;8.80;99.90
11704;DHT22;5908;51.354;7.458;2023-03-14T15:58:25;8.70;99.90
11704;DHT22;5908;51.354;7.458;2023-03-14T16:00:51;8.60;99.90
11704;DHT22;5908;51.354;7.458;2023-03-14T16:03:18;8.70;99.90
11704;DHT22;5908;51.354;7.458;2023-03-14T16:05:45;8.60;99.90
11704;DHT22;5908;51.354;7.458;2023-03-14T16:08:13;8.50;99.90
11704;DHT22;5908;51.354;7.458;2023-03-14T16:10:40;8.40;99.90
11704;DHT22;5908;51.354;7.458;2023-03-14T16:13:07;8.40;99.90